Thunder radar more information blitzortung!


Radar de pluja more information rain snow radar


Visita la nostra xarxa de llocs de meteo:

Template documentation
and downloads

And another site



Wind From: 11-12-2017 11:00 Until: 14:59 warning for: Wind Level: Yellow info button

Pagina Historial Weather Underground text

Diari Resum Setembre 15, 2017 Unitats:  Imperial    Mètric   Tant
« Previous Dia
SegĂźent Dia »
Diari Setmana Mensual Anual Personalitzada
  Maxima: Minima: Media:
Temperatura: 65.1 °F 49.3 °F 55.2 °F
Punt de rosada: 54 °F 46.2 °F 51.4 °F
Humitat: 91 % 64 % 88 %
Wind Speed: 4.6 mph 0 mph 1.4 mph
RĂ fegues de vent: 4.6 mph - -
Vent:- - SSW
Pression baro: 30 in 29.9 in -
Precipitacions: 0.58 in    
Historical Graphs
 
 
Dades de taula per Setembre 15, 2017
Temps Temperatura Punt de rosada Pression baro Vent Wind Speed RĂ fegues de vent Humitat Rainfall Rate (Hourly)
00:00 65.1 °F 52.5 °F 30 in ENE 3.5 mph 3.5 mph 64 % 0 in
00:05 64.9 °F 52.9 °F 30 in SE 4.6 mph 4.6 mph 65 % 0 in
00:15 56.7 °F 52.2 °F 30 in NE 1 mph 3 mph 85 % 0 in
00:25 56.5 °F 51.6 °F 30 in NNE 1 mph 2 mph 84 % 0 in
00:35 56.5 °F 52 °F 30 in North 1 mph 1 mph 85 % 0 in
00:45 56.7 °F 52.2 °F 29.9 in Calm   2 mph 85 % 0 in
00:55 56.5 °F 52 °F 29.9 in Calm   2 mph 85 % 0 in
01:05 56.5 °F 52 °F 29.9 in WSW 1 mph 1 mph 85 % 0 in
01:15 56.5 °F 52 °F 29.9 in Calm   1 mph 85 % 0 in
01:25 56.1 °F 51.6 °F 30 in NNE 1 mph 3 mph 85 % 0 in
01:35 56.1 °F 51.6 °F 30 in Calm   2 mph 85 % 0 in
01:45 56.1 °F 51.6 °F 30 in Calm   2 mph 85 % 0 in
01:55 55.9 °F 51.3 °F 30 in NNE 1 mph 3 mph 84 % 0 in
02:05 55.8 °F 51.1 °F 30 in NNE 2 mph 3 mph 84 % 0 in
02:15 55.8 °F 51.1 °F 30 in NNE 1 mph 2 mph 84 % 0 in
02:25 55.9 °F 51.3 °F 30 in Calm   2 mph 84 % 0 in
02:35 56.1 °F 51.4 °F 30 in WNW 1 mph 2 mph 84 % 0 in
02:45 55.9 °F 51.3 °F 30 in WNW 2 mph 2 mph 84 % 0 in
02:55 55.9 °F 51.3 °F 30 in NW 1 mph 2 mph 84 % 0 in
03:05 55.9 °F 51.3 °F 30 in North 1 mph 2 mph 84 % 0 in
03:15 55.9 °F 51.3 °F 30 in NNE 1 mph 2 mph 84 % 0 in
03:25 55.8 °F 51.1 °F 30 in NE 1 mph 1 mph 84 % 0 in
03:35 55.8 °F 51.1 °F 30 in NNW 1 mph 2 mph 84 % 0 in
03:45 55.4 °F 50 °F 30 in West 1 mph 2 mph 82 % 0 in
03:55 55.6 °F 50.2 °F 30 in SSW 1 mph 1 mph 82 % 0 in
04:05 55.4 °F 49.6 °F 30 in SW 2 mph 2 mph 81 % 0 in
04:15 55.2 °F 49.5 °F 30 in WSW 1 mph 2 mph 81 % 0 in
04:25 55.6 °F 49.8 °F 30 in Calm   1 mph 81 % 0 in
04:35 55.6 °F 49.5 °F 30 in East 1 mph   80 % 0 in
04:45 55.8 °F 50 °F 30 in Calm   2 mph 81 % 0 in
04:55 55.6 °F 49.8 °F 30 in NNE 1 mph 2 mph 81 % 0 in
05:05 55.8 °F 50 °F 30 in Calm   3 mph 81 % 0 in
05:15 55.6 °F 50.2 °F 30 in Calm   2 mph 82 % 0 in
05:25 55.6 °F 50.5 °F 30 in Calm     83 % 0 in
10:33 55.4 °F 50.4 °F 30 in SW 2.3 mph   83 % 0 in
10:34 55.4 °F 50.4 °F 30 in SW 2.3 mph   83 % 0 in
10:35 55.4 °F 50.4 °F 30 in NNW 3.5 mph   83 % 0 in
10:40 55.2 °F 50.2 °F 30 in NW 0.9 mph   83 % 0 in
10:45 55 °F 50 °F 30 in West 1.4 mph   83 % 0 in
10:50 55.2 °F 50.2 °F 30 in SSE 2.3 mph 2.3 mph 83 % 0 in
10:55 55.4 °F 50.5 °F 30 in SSE 1.2 mph   84 % 0 in
11:00 55 °F 50.4 °F 30 in SE 2.2 mph 2.2 mph 84 % 0 in
11:05 54.7 °F 49.6 °F 30 in WNW 1.2 mph   83 % 0 in
11:10 54.9 °F 50.2 °F 30 in East 2.3 mph 2.3 mph 84 % 0 in
11:15 55 °F 50.4 °F 30 in NNE 1.2 mph   84 % 0 in
11:20 54.9 °F 50.2 °F 30 in Calm     84 % 0 in
11:25 55 °F 50.5 °F 30 in Calm     85 % 0 in
11:30 55 °F 50.5 °F 30 in SSE 1.2 mph   85 % 0 in
11:35 55 °F 50.5 °F 30 in ESE 1.4 mph 1.4 mph 85 % 0 in
11:40 55 °F 50.5 °F 30 in SW 0.9 mph   85 % 0 in
11:45 55.4 °F 51.1 °F 30 in South 1.2 mph   85 % 0 in
11:50 55.4 °F 51.1 °F 30 in ESE 1.2 mph   85 % 0 in
11:55 55.2 °F 50.7 °F 30 in WSW 1.2 mph 1.4 mph 85 % 0 in
12:00 55.2 °F 50.7 °F 30 in SW 1.2 mph   85 % 0 in
12:05 55.2 °F 50.7 °F 30 in South 1.2 mph   85 % 0 in
12:10 55.2 °F 50.7 °F 30 in ESE 1.2 mph 1.2 mph 85 % 0 in
12:15 55.4 °F 51.1 °F 30 in SW 1.6 mph   85 % 0.04 in
12:20 55.4 °F 51.3 °F 30 in SW 1.4 mph 1.4 mph 86 % 0.04 in
12:25 55.2 °F 50.7 °F 30 in NNW 1.2 mph   85 % 0.04 in
12:30 55.4 °F 51.3 °F 30 in WNW 1.2 mph   86 % 0.04 in
12:35 55.6 °F 51.4 °F 29.9 in Calm     86 % 0.04 in
12:40 55.8 °F 51.6 °F 29.9 in West 2.3 mph 2.3 mph 86 % 0.04 in
12:41 55.8 °F 51.6 °F 29.9 in WNW 2.3 mph 2.3 mph 86 % 0.04 in
12:46 55.9 °F 51.8 °F 29.9 in WSW 2.6 mph   86 % 0.04 in
12:51 55.8 °F 51.3 °F 30 in SW 3.5 mph 3.5 mph 85 % 0.04 in
12:56 55.9 °F 51.8 °F 30 in Calm     86 % 0.04 in
13:01 55.6 °F 51.4 °F 30 in NNE 1.2 mph 1.2 mph 86 % 0.04 in
13:06 55.8 °F 51.6 °F 29.9 in WSW 1.4 mph   86 % 0.04 in
13:11 56.1 °F 52.3 °F 29.9 in West 1.2 mph   87 % 0.04 in
13:16 55.9 °F 52.2 °F 29.9 in NNW 1.2 mph 1.2 mph 87 % 0 in
13:21 56.1 °F 52.3 °F 29.9 in SW 1.2 mph 1.4 mph 87 % 0 in
13:26 56.5 °F 52.7 °F 29.9 in WSW 1.4 mph 1.4 mph 87 % 0 in
13:31 56.5 °F 52.7 °F 29.9 in SW 1.2 mph   87 % 0 in
13:34 56.3 °F 52.5 °F 29.9 in WNW 1.2 mph   87 % 0 in
13:39 56.1 °F 52.3 °F 29.9 in South 1.2 mph   87 % 0.04 in
13:44 55.9 °F 52.2 °F 29.9 in ENE 1.2 mph   87 % 0.04 in
13:49 56.1 °F 52.3 °F 29.9 in WSW 2.3 mph 2.3 mph 87 % 0.04 in
13:54 56.1 °F 52.3 °F 29.9 in SW 2.3 mph   87 % 0.04 in
13:59 56.3 °F 52.5 °F 29.9 in Calm     87 % 0.04 in
14:04 56.3 °F 52.9 °F 29.9 in WNW 1.2 mph   88 % 0.04 in
14:09 56.1 °F 52.3 °F 29.9 in SW 2.3 mph 2.3 mph 87 % 0.04 in
14:14 56.3 °F 52.5 °F 29.9 in SW 2.3 mph 2.3 mph 87 % 0.04 in
14:19 56.3 °F 52.5 °F 29.9 in WNW 3.5 mph 3.5 mph 87 % 0.04 in
14:24 56.1 °F 52.3 °F 29.9 in SW 1.2 mph   87 % 0.04 in
14:29 56.1 °F 52.3 °F 29.9 in SW 2.3 mph 2.3 mph 87 % 0.04 in
14:34 55.9 °F 52.2 °F 29.9 in West 1.2 mph   87 % 0.04 in
14:39 55.9 °F 52.2 °F 29.9 in NNW 2.4 mph 2.4 mph 87 % 0.04 in
14:44 55.9 °F 52.2 °F 29.9 in SW 1.2 mph   87 % 0.04 in
14:49 55.9 °F 52.3 °F 29.9 in West 1.2 mph 1.2 mph 88 % 0.04 in
14:54 55.8 °F 52 °F 29.9 in WSW 1.4 mph 1.4 mph 87 % 0.04 in
15:04 55.9 °F 52.3 °F 29.9 in Calm     88 % 0.04 in
15:09 56.1 °F 52.5 °F 29.9 in WNW 1.2 mph   88 % 0.04 in
15:14 56.3 °F 53.1 °F 29.9 in Calm     89 % 0.08 in
15:19 56.3 °F 52.9 °F 29.9 in SW 1.4 mph   88 % 0.08 in
15:24 56.5 °F 53.2 °F 29.9 in Calm     89 % 0.08 in
15:29 56.7 °F 53.4 °F 29.9 in West 1.2 mph   89 % 0.08 in
15:34 56.5 °F 53.2 °F 29.9 in SW 2.3 mph   89 % 0.08 in
15:39 56.7 °F 53.4 °F 29.9 in Calm     89 % 0.04 in
15:49 56.3 °F 53.1 °F 29.9 in Calm     89 % 0.04 in
15:54 56.5 °F 53.6 °F 29.9 in Calm     90 % 0.04 in
15:59 56.5 °F 53.6 °F 29.9 in Calm     90 % 0.04 in
16:04 56.8 °F 54 °F 29.9 in SW 1.2 mph   90 % 0.04 in
16:09 56.7 °F 53.8 °F 29.9 in SW 1.4 mph 2 mph 90 % 0.04 in
16:14 56.8 °F 54 °F 29.9 in SW 1.2 mph   90 % 0.05 in
16:19 56.3 °F 53.1 °F 29.9 in East 2.3 mph 2.3 mph 89 % 0.05 in
16:24 56.5 °F 53.2 °F 29.9 in Calm     89 % 0.05 in
16:29 56.3 °F 53.1 °F 29.9 in NE 3.1 mph 3.1 mph 89 % 0.05 in
16:34 56.5 °F 53.2 °F 29.9 in ENE 2.9 mph 2.9 mph 89 % 0.05 in
16:39 56.3 °F 53.1 °F 29.9 in ENE 3.3 mph 3.3 mph 89 % 0.05 in
16:44 56.3 °F 53.1 °F 29.9 in ENE 2.3 mph 2.3 mph 89 % 0.05 in
16:49 56.1 °F 52.9 °F 29.9 in ENE 1.4 mph 1.6 mph 89 % 0.05 in
16:50 56.1 °F 52.9 °F 29.9 in NNE 2.4 mph 2.4 mph 89 % 0.05 in
16:55 56.1 °F 52.9 °F 29.9 in East 2.3 mph 2.3 mph 89 % 0.05 in
17:00 55.9 °F 52.7 °F 29.9 in East 2.3 mph 2.3 mph 89 % 0.05 in
17:05 56.1 °F 52.9 °F 29.9 in SW 2.9 mph 2.9 mph 89 % 0.05 in
17:10 56.5 °F 53.2 °F 29.9 in South 2.3 mph   89 % 0.05 in
17:15 56.7 °F 53.8 °F 29.9 in SSE 2.4 mph   90 % 0 in
17:20 56.7 °F 53.8 °F 29.9 in SW 2.6 mph 2.6 mph 90 % 0 in
17:25 56.7 °F 53.4 °F 29.9 in SSW 2.3 mph   89 % 0.04 in
17:30 56.7 °F 53.8 °F 29.9 in SW 2.4 mph 2.4 mph 90 % 0.04 in
17:35 56.5 °F 53.6 °F 29.9 in West 1.2 mph 1.2 mph 90 % 0.04 in
17:40 56.3 °F 53.4 °F 29.9 in Calm     90 % 0.04 in
17:45 56.3 °F 53.4 °F 29.9 in SW 2.3 mph 2.3 mph 90 % 0.04 in
17:50 56.1 °F 53.2 °F 29.9 in WSW 2.3 mph 2.3 mph 90 % 0.04 in
17:55 56.3 °F 53.4 °F 29.9 in Calm     90 % 0.04 in
18:00 56.5 °F 53.6 °F 29.9 in Calm     90 % 0.04 in
18:05 56.3 °F 53.4 °F 29.9 in SSW 2.3 mph 2.3 mph 90 % 0.04 in
18:10 56.1 °F 53.2 °F 29.9 in SW 2.3 mph   90 % 0.04 in
18:15 56.1 °F 53.2 °F 29.9 in Calm     90 % 0.04 in
18:20 56.3 °F 53.8 °F 29.9 in SW 2.3 mph   91 % 0.04 in
18:25 56.1 °F 53.4 °F 29.9 in Calm     91 % 0 in
18:30 55.9 °F 53.1 °F 29.9 in WSW 2.3 mph 2.3 mph 90 % 0 in
18:35 55.9 °F 53.4 °F 29.9 in SE 1.2 mph   91 % 0 in
18:36 55.9 °F 53.4 °F 29.9 in SE 1.2 mph   91 % 0 in
18:41 55.9 °F 53.4 °F 29.9 in Calm     91 % 0.04 in
18:46 55.8 °F 52.9 °F 29.9 in WSW 2.3 mph 2.3 mph 90 % 0.04 in
18:51 55.8 °F 52.9 °F 29.9 in WSW 3.5 mph 3.5 mph 90 % 0.04 in
18:56 55.9 °F 53.1 °F 29.9 in West 1.2 mph   90 % 0.04 in
19:01 55.8 °F 53.2 °F 29.9 in SW 2.3 mph   91 % 0.04 in
19:06 55.6 °F 52.7 °F 29.9 in West 1.2 mph   90 % 0.04 in
19:11 55.6 °F 53.1 °F 29.9 in Calm     91 % 0.04 in
19:16 55.6 °F 53.1 °F 29.9 in Calm     91 % 0.04 in
19:21 55.6 °F 53.1 °F 29.9 in Calm     91 % 0.04 in
19:26 55.6 °F 53.1 °F 29.9 in West 1.2 mph   91 % 0.04 in
19:31 55.6 °F 53.1 °F 29.9 in WSW 1.2 mph   91 % 0.04 in
19:36 55.6 °F 53.1 °F 29.9 in Calm     91 % 0.04 in
19:41 55.4 °F 52.9 °F 29.9 in Calm     91 % 0 in
19:46 55.4 °F 52.5 °F 29.9 in NE 2.3 mph 2.3 mph 90 % 0 in
19:51 55.4 °F 52.9 °F 29.9 in NNE 1.2 mph   91 % 0 in
19:56 55.6 °F 53.1 °F 29.9 in NNE 2.3 mph 2.3 mph 91 % 0 in
20:01 55.4 °F 52.9 °F 29.9 in NNE 1.2 mph   91 % 0 in
20:06 55.2 °F 52.3 °F 29.9 in SSE 3.5 mph 3.5 mph 90 % 0 in
20:11 55 °F 52.2 °F 29.9 in West 2.3 mph 2.3 mph 90 % 0 in
20:16 55.2 °F 52.3 °F 29.9 in Calm     90 % 0 in
20:21 55.2 °F 52.3 °F 29.9 in SW 3.3 mph 3.3 mph 90 % 0 in
20:26 55.4 °F 52.5 °F 29.9 in WSW 2.3 mph 2.3 mph 90 % 0 in
20:31 55.2 °F 52.3 °F 29.9 in SW 2.3 mph   90 % 0 in
20:36 55.2 °F 52.3 °F 29.9 in SSW 3.5 mph 3.5 mph 90 % 0 in
20:41 55.2 °F 52.5 °F 29.9 in WSW 2.3 mph 2.3 mph 91 % 0 in
20:46 55 °F 52.5 °F 29.9 in West 2.3 mph 2.3 mph 91 % 0 in
20:51 54.9 °F 52 °F 29.9 in West 2.3 mph 2.3 mph 90 % 0 in
20:56 54.9 °F 52 °F 29.9 in Calm     90 % 0 in
21:01 54.5 °F 51.6 °F 29.9 in West 3.1 mph 3.1 mph 90 % 0 in
21:06 54.3 °F 51.4 °F 29.9 in WNW 2.3 mph 2.3 mph 90 % 0 in
21:11 54.3 °F 51.4 °F 29.9 in SW 2.3 mph 2.3 mph 90 % 0 in
21:16 54.3 °F 51.4 °F 29.9 in WSW 2.4 mph 2.4 mph 90 % 0 in
21:21 54.3 °F 51.4 °F 29.9 in WSW 2.3 mph 2.3 mph 90 % 0 in
21:26 54.1 °F 51.3 °F 29.9 in SW 1.2 mph 1.2 mph 90 % 0 in
21:31 54.1 °F 51.3 °F 29.9 in Calm     90 % 0 in
21:36 54.1 °F 51.3 °F 29.9 in South 2.3 mph 2.3 mph 90 % 0 in
21:41 54 °F 51.1 °F 29.9 in West 1.2 mph 1.2 mph 90 % 0 in
21:46 54 °F 51.1 °F 29.9 in SSW 2.3 mph   90 % 0 in
21:51 54 °F 51.1 °F 30 in SW 2.4 mph 2.4 mph 90 % 0 in
21:56 53.8 °F 50.9 °F 30 in SSW 2.3 mph 2.3 mph 90 % 0 in
22:01 53.6 °F 50.7 °F 30 in SW 1.2 mph   90 % 0 in
22:06 53.6 °F 50.7 °F 29.9 in Calm     90 % 0 in
22:11 53.6 °F 50.7 °F 29.9 in SSW 1.2 mph 1.4 mph 90 % 0 in
22:15 50 °F 47.1 °F 29.9 in Calm     90 % 0 in
22:16 53.4 °F 50.5 °F 29.9 in SSW 2.3 mph 2.3 mph 90 % 0 in
22:21 53.2 °F 50.4 °F 29.9 in Calm     90 % 0 in
22:25 50.2 °F 47.5 °F 29.9 in SW 1 mph 2 mph 90 % 0 in
22:26 53.2 °F 50.4 °F 29.9 in SSW 1.2 mph   90 % 0 in
22:31 53.1 °F 50.2 °F 29.9 in Calm     90 % 0 in
22:35 50 °F 46.9 °F 29.9 in SW 1 mph 2 mph 89 % 0 in
22:36 52.9 °F 50 °F 29.9 in SSW 2.3 mph 2.3 mph 90 % 0 in
22:41 52.9 °F 50 °F 29.9 in SSW 1.4 mph 1.6 mph 90 % 0 in
22:45 50 °F 46.9 °F 29.9 in Calm     89 % 0 in
22:46 52.7 °F 49.8 °F 29.9 in SW 2.3 mph 2.3 mph 90 % 0 in
22:51 52.7 °F 49.5 °F 29.9 in SW 2.3 mph 2.3 mph 89 % 0 in
22:55 49.8 °F 46.8 °F 29.9 in SW 1 mph 2 mph 89 % 0 in
22:56 52.7 °F 49.8 °F 29.9 in SW 2.3 mph 2.3 mph 90 % 0 in
23:01 52.7 °F 49.8 °F 29.9 in SW 1.2 mph   90 % 0 in
23:05 49.5 °F 46.4 °F 29.9 in Calm   2 mph 89 % 0 in
23:06 52.7 °F 49.8 °F 29.9 in SW 2.3 mph 2.3 mph 90 % 0 in
23:11 52.7 °F 49.8 °F 29.9 in SW 2.3 mph 2.3 mph 90 % 0 in
23:15 49.8 °F 46.8 °F 29.9 in SSW 1 mph 3 mph 89 % 0 in
23:16 52.7 °F 49.8 °F 29.9 in SW 1.2 mph   90 % 0 in
23:21 52.7 °F 49.8 °F 29.9 in Calm     90 % 0 in
23:25 50 °F 46.9 °F 29.9 in SW 2 mph 2 mph 89 % 0 in
23:26 52.5 °F 49.6 °F 29.9 in Calm     90 % 0 in
23:31 52.5 °F 49.6 °F 29.9 in Calm     90 % 0 in
23:35 50 °F 46.9 °F 29.9 in Calm   1 mph 89 % 0 in
23:36 52.3 °F 49.5 °F 29.9 in SSW 2.3 mph 2.3 mph 90 % 0 in
23:41 52.2 °F 48.9 °F 29.9 in SSW 2.3 mph 2.3 mph 89 % 0 in
23:45 49.3 °F 46.2 °F 29.9 in WSW 2 mph 3 mph 89 % 0 in
23:46 52.2 °F 48.9 °F 29.9 in SSW 2.3 mph 2.3 mph 89 % 0 in
23:51 52 °F 48.7 °F 29.9 in Calm     89 % 0 in
23:55 49.3 °F 46.2 °F 29.9 in SW 3 mph 3 mph 89 % 0 in
23:56 52 °F 48.7 °F 29.9 in SW 1.2 mph 1.2 mph 89 % 0 in
Meteo Sesrovires
Elogis d' Weather Underground - 3.5 mb

Guio original per  Jim McMurry - jmcmurry@mwt.net Adaptat per a la plantilla per  Wim van der Kuil - Leuven-Template.eu

Trobareu la nostra informacio del temps tambe a:

Weather Underground

AWEKAS